Time;durP1;ratioP1;P1;durP2;ratioP2;P2;SDS_P1;SDS_P2;PMS_P1;PMS_P2;Temp;Humidity;BMP_temperature;BMP_pressure;BME280_temperature;BME280_humidity;BME280_pressure;Samples;Min_cycle;Max_cycle;Signal;HPM_P1;HPM_P2
2022/10/01 00:00:27;;;;;;;9.30;5.90;;;;;;;;;;5055915;28;20572;-88
2022/10/01 00:02:54;;;;;;;15.70;6.10;;;;;;;;;;5055862;28;20052;-88
2022/10/01 00:05:22;;;;;;;10.82;5.82;;;;;;;;;;5055964;28;20054;-88
2022/10/01 00:07:50;;;;;;;6.05;5.45;;;;;;;;;;5072948;28;20395;-88
2022/10/01 00:10:17;;;;;;;7.50;5.70;;;;;;;;;;5055313;28;20045;-87
2022/10/01 00:12:46;;;;;;;6.93;5.68;;;;;;;;;;5073018;28;20056;-88
2022/10/01 00:15:15;;;;;;;8.32;6.50;;;;;;;;;;5055418;28;20053;-88
2022/10/01 00:17:42;;;;;;;7.95;5.90;;;;;;;;;;5055301;28;20108;-88
2022/10/01 00:20:10;;;;;;;7.22;5.10;;;;;;;;;;5055379;28;20049;-88
2022/10/01 00:22:40;;;;;;;6.30;5.22;;;;;;;;;;5073040;28;20458;-88
2022/10/01 00:25:08;;;;;;;6.28;4.57;;;;;;;;;;5055060;28;20044;-88
2022/10/01 00:27:35;;;;;;;12.82;5.53;;;;;;;;;;5073026;28;20511;-88
2022/10/01 00:30:04;;;;;;;6.93;4.90;;;;;;;;;;5055254;28;20055;-88
2022/10/01 00:32:31;;;;;;;6.47;5.70;;;;;;;;;;5055195;28;20049;-87
2022/10/01 00:34:59;;;;;;;5.93;5.10;;;;;;;;;;5055097;28;20049;-87
2022/10/01 00:37:26;;;;;;;7.80;4.97;;;;;;;;;;5055430;28;20439;-88
2022/10/01 00:39:53;;;;;;;9.77;5.25;;;;;;;;;;5072834;28;20045;-88
2022/10/01 00:42:24;;;;;;;5.93;4.88;;;;;;;;;;5074009;28;20045;-88
2022/10/01 00:44:52;;;;;;;5.40;4.90;;;;;;;;;;5076209;28;20053;-88
2022/10/01 00:47:19;;;;;;;13.30;4.97;;;;;;;;;;5076094;28;20051;-88
2022/10/01 00:49:47;;;;;;;9.88;5.25;;;;;;;;;;5058387;28;20139;-88
2022/10/01 00:52:16;;;;;;;7.75;4.93;;;;;;;;;;5058561;28;20047;-88
2022/10/01 00:54:52;;;;;;;9.85;6.35;;;;;;;;;;5058353;28;20063;-88
2022/10/01 00:57:21;;;;;;;11.30;5.38;;;;;;;;;;5058609;28;20428;-88
2022/10/01 00:59:49;;;;;;;7.53;4.85;;;;;;;;;;5058336;28;20477;-88
2022/10/01 01:02:16;;;;;;;7.30;5.95;;;;;;;;;;5076030;28;20072;-88
2022/10/01 01:04:43;;;;;;;7.50;5.22;;;;;;;;;;5058388;28;20044;-88
2022/10/01 01:07:11;;;;;;;6.57;5.03;;;;;;;;;;5076079;28;20053;-88
2022/10/01 01:09:42;;;;;;;5.82;5.22;;;;;;;;;;5058342;28;20047;-88
2022/10/01 01:12:21;;;;;;;5.43;4.45;;;;;;;;;;5076092;28;20056;-88
2022/10/01 01:15:17;;;;;;;8.10;5.13;;;;;;;;;;5075443;28;20408;-87
2022/10/01 01:17:53;;;;;;;7.63;6.00;;;;;;;;;;5063121;28;20048;-88
2022/10/01 01:20:30;;;;;;;9.88;5.93;;;;;;;;;;5058398;28;20052;-86
2022/10/01 01:23:04;;;;;;;5.40;4.97;;;;;;;;;;5075445;28;20048;-88
2022/10/01 01:25:38;;;;;;;7.43;5.78;;;;;;;;;;5057835;28;20403;-87
2022/10/01 01:28:07;;;;;;;8.65;5.25;;;;;;;;;;5057909;28;20400;-88
2022/10/01 01:30:39;;;;;;;9.45;5.38;;;;;;;;;;5075569;28;20079;-88
2022/10/01 01:33:16;;;;;;;8.38;5.07;;;;;;;;;;5075517;28;20056;-88
2022/10/01 01:35:46;;;;;;;5.97;5.35;;;;;;;;;;5057572;28;20049;-87
2022/10/01 01:38:15;;;;;;;11.25;6.00;;;;;;;;;;5075516;28;20068;-88
2022/10/01 01:40:44;;;;;;;8.30;5.10;;;;;;;;;;5057753;28;20139;-88
2022/10/01 01:43:19;;;;;;;6.53;5.25;;;;;;;;;;5057870;28;20048;-88
2022/10/01 01:45:48;;;;;;;6.82;4.95;;;;;;;;;;5057548;28;20080;-88
2022/10/01 01:48:16;;;;;;;5.60;5.00;;;;;;;;;;5075121;28;20059;-88
2022/10/01 01:50:47;;;;;;;7.07;5.60;;;;;;;;;;5057514;28;20044;-87
2022/10/01 01:53:15;;;;;;;11.65;5.53;;;;;;;;;;5055969;28;20048;-88
2022/10/01 01:55:47;;;;;;;7.78;5.70;;;;;;;;;;5057243;28;20074;-88
2022/10/01 01:58:15;;;;;;;11.57;5.70;;;;;;;;;;5057657;28;20076;-88
2022/10/01 02:00:42;;;;;;;11.20;6.15;;;;;;;;;;5057362;28;20040;-88
2022/10/01 02:03:10;;;;;;;9.95;5.85;;;;;;;;;;5057231;28;20048;-89
2022/10/01 02:05:42;;;;;;;7.18;5.60;;;;;;;;;;5074503;28;20048;-88
2022/10/01 02:08:26;;;;;;;10.52;6.68;;;;;;;;;;5057544;28;20075;-88
2022/10/01 02:11:02;;;;;;;11.80;6.00;;;;;;;;;;5057101;28;20059;-88
2022/10/01 02:13:37;;;;;;;9.13;5.40;;;;;;;;;;5057129;28;20044;-88
2022/10/01 02:16:17;;;;;;;13.80;6.13;;;;;;;;;;5057209;28;20404;-88
2022/10/01 02:18:58;;;;;;;13.85;6.40;;;;;;;;;;5057115;28;20052;-89
2022/10/01 02:21:35;;;;;;;10.70;5.95;;;;;;;;;;5057148;28;20052;-88
2022/10/01 02:24:07;;;;;;;6.88;5.28;;;;;;;;;;5089409;28;20094;-87
2022/10/01 02:26:36;;;;;;;8.13;5.75;;;;;;;;;;5076715;28;20061;-89
2022/10/01 02:29:06;;;;;;;7.95;5.72;;;;;;;;;;5056955;28;20044;-87
2022/10/01 02:31:33;;;;;;;9.73;5.60;;;;;;;;;;5074289;28;20049;-88
2022/10/01 02:34:01;;;;;;;7.63;5.15;;;;;;;;;;5056698;28;20078;-88
2022/10/01 02:36:30;;;;;;;8.73;6.47;;;;;;;;;;5074059;28;20055;-88
2022/10/01 02:38:58;;;;;;;9.23;5.63;;;;;;;;;;5056457;28;20040;-88
2022/10/01 02:41:33;;;;;;;8.52;5.57;;;;;;;;;;5074439;28;20052;-88
2022/10/01 02:44:03;;;;;;;11.52;5.47;;;;;;;;;;5056491;28;20076;-86
2022/10/01 02:46:43;;;;;;;16.42;7.30;;;;;;;;;;5074192;28;20052;-88
2022/10/01 02:49:12;;;;;;;24.40;9.45;;;;;;;;;;5056772;28;20060;-88
2022/10/01 02:51:52;;;;;;;17.77;7.93;;;;;;;;;;5056276;28;20044;-88
2022/10/01 02:54:39;;;;;;;20.42;7.13;;;;;;;;;;5056624;28;20048;-88
2022/10/01 02:57:21;;;;;;;14.18;7.15;;;;;;;;;;5056531;28;20049;-88
2022/10/01 02:59:49;;;;;;;14.27;7.13;;;;;;;;;;5056303;28;20052;-88
2022/10/01 03:02:16;;;;;;;24.42;6.93;;;;;;;;;;5056340;28;20070;-88
2022/10/01 03:04:46;;;;;;;21.33;8.73;;;;;;;;;;5056091;28;20041;-88
2022/10/01 03:07:14;;;;;;;20.98;7.65;;;;;;;;;;5055757;28;20131;-88
2022/10/01 03:09:41;;;;;;;15.90;6.65;;;;;;;;;;5056219;28;20044;-88
2022/10/01 03:12:09;;;;;;;10.82;7.47;;;;;;;;;;5056457;28;20052;-88
2022/10/01 03:14:38;;;;;;;13.98;7.10;;;;;;;;;;5056313;28;20127;-88
2022/10/01 03:17:08;;;;;;;20.13;7.07;;;;;;;;;;5056287;28;20045;-88
2022/10/01 03:19:35;;;;;;;15.95;7.68;;;;;;;;;;5056295;28;20078;-88
2022/10/01 03:22:03;;;;;;;13.52;6.88;;;;;;;;;;5056134;28;20095;-88
2022/10/01 03:24:31;;;;;;;20.17;7.05;;;;;;;;;;5056300;28;20058;-88
2022/10/01 03:26:58;;;;;;;12.45;6.60;;;;;;;;;;5056100;28;20052;-88
2022/10/01 03:29:25;;;;;;;15.85;6.95;;;;;;;;;;5055923;28;20045;-88
2022/10/01 03:31:52;;;;;;;7.05;6.32;;;;;;;;;;5055943;28;20049;-88
2022/10/01 03:34:20;;;;;;;13.20;7.13;;;;;;;;;;5055766;28;20119;-87
2022/10/01 03:36:47;;;;;;;14.30;7.38;;;;;;;;;;5055671;28;20053;-89
2022/10/01 03:39:14;;;;;;;20.45;10.10;;;;;;;;;;5055879;28;20048;-89
2022/10/01 03:41:41;;;;;;;22.73;8.02;;;;;;;;;;5073484;28;20060;-88
2022/10/01 03:44:09;;;;;;;17.00;7.75;;;;;;;;;;5072955;28;20044;-88
2022/10/01 03:46:36;;;;;;;15.10;7.20;;;;;;;;;;5055980;28;20052;-88
2022/10/01 03:49:03;;;;;;;10.40;7.65;;;;;;;;;;5055793;28;20063;-88
2022/10/01 03:51:30;;;;;;;15.82;7.00;;;;;;;;;;5074184;28;20062;-89
2022/10/01 03:53:58;;;;;;;16.13;6.97;;;;;;;;;;5056547;28;20102;-88
2022/10/01 03:56:25;;;;;;;16.50;7.43;;;;;;;;;;5055881;28;20136;-89
2022/10/01 03:58:53;;;;;;;19.33;8.70;;;;;;;;;;5055934;28;20045;-88
2022/10/01 04:01:20;;;;;;;19.70;9.43;;;;;;;;;;5073624;28;20135;-89
2022/10/01 04:03:49;;;;;;;13.27;8.85;;;;;;;;;;5073442;28;20049;-88
2022/10/01 04:06:16;;;;;;;19.58;10.63;;;;;;;;;;5055698;28;20045;-88
2022/10/01 04:08:44;;;;;;;20.80;9.63;;;;;;;;;;5056656;28;20048;-89
2022/10/01 04:11:11;;;;;;;13.98;9.80;;;;;;;;;;5056939;28;20063;-88
2022/10/01 04:13:38;;;;;;;13.80;9.13;;;;;;;;;;5062180;28;20044;-88
2022/10/01 04:16:05;;;;;;;14.50;9.60;;;;;;;;;;5073103;28;20442;-88
2022/10/01 04:18:33;;;;;;;19.17;11.10;;;;;;;;;;5059346;28;20044;-88
2022/10/01 04:21:01;;;;;;;24.48;14.35;;;;;;;;;;5059661;28;20052;-89
2022/10/01 04:23:28;;;;;;;26.85;17.55;;;;;;;;;;5076832;28;20060;-88
2022/10/01 04:25:58;;;;;;;40.30;22.30;;;;;;;;;;5076746;28;20048;-88
2022/10/01 04:28:25;;;;;;;56.95;31.55;;;;;;;;;;5076863;28;20048;-88
2022/10/01 04:31:23;;;;;;;51.08;27.75;;;;;;;;;;5059506;28;20051;-88
2022/10/01 04:33:40;;;;;;;52.58;24.33;;;;;;;;;;5076820;28;20048;-89
2022/10/01 04:36:07;;;;;;;49.65;23.75;;;;;;;;;;5059538;28;20048;-89
2022/10/01 04:38:35;;;;;;;49.75;22.65;;;;;;;;;;5059182;28;20409;-89
2022/10/01 04:41:02;;;;;;;35.75;20.77;;;;;;;;;;5076442;28;20064;-88
2022/10/01 04:43:29;;;;;;;61.30;19.90;;;;;;;;;;5059354;28;20050;-89
2022/10/01 04:45:56;;;;;;;57.25;23.35;;;;;;;;;;5058438;28;20067;-89
2022/10/01 04:48:24;;;;;;;72.05;23.88;;;;;;;;;;5059203;28;20537;-90
2022/10/01 04:50:51;;;;;;;41.97;19.08;;;;;;;;;;5059070;28;20420;-89
2022/10/01 04:53:18;;;;;;;57.80;21.05;;;;;;;;;;5058917;28;20044;-88
2022/10/01 04:55:46;;;;;;;39.83;18.15;;;;;;;;;;5058848;28;20048;-89
2022/10/01 04:58:13;;;;;;;33.83;19.92;;;;;;;;;;5058907;28;20068;-89
2022/10/01 05:00:40;;;;;;;47.67;22.27;;;;;;;;;;5058559;28;20049;-89
2022/10/01 05:03:08;;;;;;;58.70;23.17;;;;;;;;;;5058832;28;20084;-90
2022/10/01 05:05:36;;;;;;;39.35;19.27;;;;;;;;;;5058560;28;20500;-90
2022/10/01 05:08:03;;;;;;;38.58;18.25;;;;;;;;;;5058509;28;20398;-90
2022/10/01 05:10:31;;;;;;;43.38;24.92;;;;;;;;;;5058613;28;20055;-89
2022/10/01 05:13:00;;;;;;;39.40;22.17;;;;;;;;;;5058297;28;20059;-89
2022/10/01 05:15:27;;;;;;;64.43;21.95;;;;;;;;;;5058291;28;20048;-90
2022/10/01 05:17:55;;;;;;;69.13;23.05;;;;;;;;;;5058526;28;20058;-88
2022/10/01 05:20:24;;;;;;;67.25;24.35;;;;;;;;;;5058322;28;20412;-89
2022/10/01 05:22:53;;;;;;;48.63;22.48;;;;;;;;;;5058305;28;20049;-89
2022/10/01 05:25:20;;;;;;;55.20;23.90;;;;;;;;;;5058010;28;20481;-89
2022/10/01 05:27:47;;;;;;;50.65;22.25;;;;;;;;;;5075236;28;20052;-88
2022/10/01 05:30:24;;;;;;;63.67;22.00;;;;;;;;;;5057539;28;20045;-90
2022/10/01 05:32:56;;;;;;;42.30;23.00;;;;;;;;;;5076097;28;20048;-90
2022/10/01 05:35:24;;;;;;;143.98;32.17;;;;;;;;;;5058140;28;20056;-90
2022/10/01 05:37:55;;;;;;;80.30;28.13;;;;;;;;;;5058440;28;20059;-91
2022/10/01 05:40:24;;;;;;;227.35;39.20;;;;;;;;;;5075825;28;20063;-89
2022/10/01 05:42:51;;;;;;;70.60;25.90;;;;;;;;;;5057723;28;20454;-89
2022/10/01 05:45:19;;;;;;;138.75;30.10;;;;;;;;;;5057835;28;20053;-89
2022/10/01 05:47:48;;;;;;;79.45;27.15;;;;;;;;;;5075379;28;20040;-89
2022/10/01 05:50:16;;;;;;;65.03;24.83;;;;;;;;;;5075764;28;20051;-89
2022/10/01 05:52:53;;;;;;;99.57;25.58;;;;;;;;;;5075437;28;20149;-90
2022/10/01 05:55:21;;;;;;;70.47;23.55;;;;;;;;;;5075102;28;20141;-89
2022/10/01 05:58:11;;;;;;;69.72;25.65;;;;;;;;;;5075368;28;20390;-90
2022/10/01 06:00:39;;;;;;;63.30;23.08;;;;;;;;;;5057474;28;20170;-89
2022/10/01 06:03:06;;;;;;;48.60;23.83;;;;;;;;;;5057516;28;20044;-90
2022/10/01 06:05:34;;;;;;;44.58;23.92;;;;;;;;;;5058680;28;20056;-90
2022/10/01 06:08:04;;;;;;;57.10;22.88;;;;;;;;;;5094595;28;20103;-90
2022/10/01 06:10:31;;;;;;;42.55;22.08;;;;;;;;;;5068551;28;20059;-89
2022/10/01 06:13:04;;;;;;;63.72;26.50;;;;;;;;;;5074848;28;20040;-90
2022/10/01 06:15:33;;;;;;;56.40;24.42;;;;;;;;;;5057191;28;20198;-90
2022/10/01 06:18:07;;;;;;;52.65;24.98;;;;;;;;;;5057457;28;20044;-91
2022/10/01 06:20:34;;;;;;;46.40;23.33;;;;;;;;;;5058738;28;20048;-90
2022/10/01 06:23:04;;;;;;;81.40;26.42;;;;;;;;;;5057331;28;20066;-90
2022/10/01 06:25:32;;;;;;;82.45;24.67;;;;;;;;;;5056878;28;20049;-90
2022/10/01 06:27:59;;;;;;;82.47;24.52;;;;;;;;;;5074619;28;20040;-90
2022/10/01 06:30:30;;;;;;;58.03;21.73;;;;;;;;;;5059078;28;20416;-92
2022/10/01 06:33:04;;;;;;;42.95;21.63;;;;;;;;;;5076782;28;20097;-90
2022/10/01 06:35:33;;;;;;;37.28;21.88;;;;;;;;;;5059267;28;20075;-89
2022/10/01 06:38:01;;;;;;;31.92;20.38;;;;;;;;;;5060716;28;20074;-90
2022/10/01 06:40:29;;;;;;;29.80;19.75;;;;;;;;;;5075902;28;20079;-89
2022/10/01 06:42:57;;;;;;;33.25;22.55;;;;;;;;;;5078587;28;20056;-92
2022/10/01 06:45:25;;;;;;;62.55;41.97;;;;;;;;;;5077227;28;20136;-91
2022/10/01 06:47:53;;;;;;;41.40;29.73;;;;;;;;;;5060506;28;20041;-90
2022/10/01 06:50:21;;;;;;;25.58;16.33;;;;;;;;;;5057812;28;20477;-88
2022/10/01 06:52:48;;;;;;;69.88;21.85;;;;;;;;;;5056793;28;20101;-90
2022/10/01 06:55:20;;;;;;;45.05;18.73;;;;;;;;;;5057288;28;20044;-91
2022/10/01 06:57:52;;;;;;;27.05;16.63;;;;;;;;;;5057772;28;20050;-90
2022/10/01 07:00:20;;;;;;;34.42;17.90;;;;;;;;;;5059414;28;20045;-89
2022/10/01 07:02:48;;;;;;;34.65;17.85;;;;;;;;;;5077492;28;20052;-90
2022/10/01 07:05:15;;;;;;;29.50;17.20;;;;;;;;;;5060359;28;20131;-90
2022/10/01 07:07:43;;;;;;;23.75;15.25;;;;;;;;;;5075637;28;20064;-89
2022/10/01 07:10:12;;;;;;;21.48;13.80;;;;;;;;;;5057316;28;20519;-89
2022/10/01 07:12:39;;;;;;;16.13;13.75;;;;;;;;;;5058298;28;20139;-90
2022/10/01 07:15:08;;;;;;;14.13;11.38;;;;;;;;;;5058320;28;20416;-88
2022/10/01 07:17:42;;;;;;;9.88;8.68;;;;;;;;;;5057054;28;20044;-88
2022/10/01 07:20:10;;;;;;;14.30;11.68;;;;;;;;;;5058821;28;20055;-88
2022/10/01 07:22:37;;;;;;;11.55;10.23;;;;;;;;;;5058989;28;20129;-88
2022/10/01 07:25:04;;;;;;;11.43;10.23;;;;;;;;;;5057915;28;20053;-90
2022/10/01 07:27:33;;;;;;;11.95;9.98;;;;;;;;;;5059274;28;20084;-88
2022/10/01 07:30:00;;;;;;;9.65;8.00;;;;;;;;;;5076060;28;20052;-88
2022/10/01 07:32:30;;;;;;;9.07;7.97;;;;;;;;;;5057033;28;20052;-88
2022/10/01 07:34:58;;;;;;;9.85;7.43;;;;;;;;;;5057216;28;20041;-88
2022/10/01 07:37:25;;;;;;;6.43;5.82;;;;;;;;;;5056926;28;20522;-85
2022/10/01 07:39:53;;;;;;;10.35;6.55;;;;;;;;;;5074887;28;20123;-87
2022/10/01 07:42:20;;;;;;;6.20;5.70;;;;;;;;;;5056920;28;20063;-88
2022/10/01 07:44:48;;;;;;;6.47;5.85;;;;;;;;;;5058044;28;20151;-86
2022/10/01 07:47:15;;;;;;;5.53;4.63;;;;;;;;;;5057277;28;20059;-87
2022/10/01 07:49:42;;;;;;;5.45;4.95;;;;;;;;;;5057742;28;20470;-86
2022/10/01 07:52:09;;;;;;;5.05;4.35;;;;;;;;;;5058640;28;20063;-86
2022/10/01 07:54:39;;;;;;;4.97;4.38;;;;;;;;;;5059333;28;20055;-86
2022/10/01 07:57:07;;;;;;;4.32;3.88;;;;;;;;;;5077149;28;20052;-84
2022/10/01 07:59:34;;;;;;;5.85;4.05;;;;;;;;;;5059680;28;20408;-86
2022/10/01 08:02:01;;;;;;;4.07;3.50;;;;;;;;;;5059530;28;20059;-87
2022/10/01 08:07:14;;;;;;;6.00;3.63;;;;;;;;;;5077357;28;20048;-85
2022/10/01 08:09:41;;;;;;;5.60;4.50;;;;;;;;;;5059163;28;20075;-86
2022/10/01 08:12:08;;;;;;;3.80;3.35;;;;;;;;;;5059195;28;20063;-85
2022/10/01 08:14:35;;;;;;;3.38;3.17;;;;;;;;;;5060973;28;20056;-85
2022/10/01 08:17:02;;;;;;;3.13;2.97;;;;;;;;;;5059307;28;20493;-85
2022/10/01 08:19:31;;;;;;;4.25;3.95;;;;;;;;;;5076712;28;20103;-88
2022/10/01 08:21:58;;;;;;;3.00;2.88;;;;;;;;;;5059421;28;20059;-89
2022/10/01 08:24:30;;;;;;;4.07;3.13;;;;;;;;;;5059740;28;20501;-85
2022/10/01 08:26:58;;;;;;;3.08;2.88;;;;;;;;;;5076774;28;20048;-85
2022/10/01 08:29:25;;;;;;;2.65;2.50;;;;;;;;;;5076631;28;20049;-86
2022/10/01 08:31:55;;;;;;;8.35;3.38;;;;;;;;;;5058937;28;20045;-84
2022/10/01 08:34:22;;;;;;;4.63;2.80;;;;;;;;;;5058436;28;20052;-91
2022/10/01 08:36:53;;;;;;;4.53;2.70;;;;;;;;;;5059060;28;20414;-86
2022/10/01 08:39:20;;;;;;;7.32;2.83;;;;;;;;;;5058944;28;20052;-89
2022/10/01 08:41:59;;;;;;;3.17;2.97;;;;;;;;;;5059110;28;20052;-88
2022/10/01 08:44:31;;;;;;;3.20;3.00;;;;;;;;;;5058874;28;20064;-86
2022/10/01 08:47:03;;;;;;;5.72;4.90;;;;;;;;;;5059253;28;20060;-87
2022/10/01 08:49:34;;;;;;;6.90;6.20;;;;;;;;;;5059088;28;20059;-91
2022/10/01 08:52:02;;;;;;;5.05;4.65;;;;;;;;;;5076675;28;20048;-89
2022/10/01 08:54:35;;;;;;;3.63;3.33;;;;;;;;;;5058783;28;20055;-87
2022/10/01 08:57:04;;;;;;;4.18;3.72;;;;;;;;;;5058991;28;20124;-88
2022/10/01 08:59:42;;;;;;;5.18;3.47;;;;;;;;;;5058896;28;20052;-90
2022/10/01 09:02:20;;;;;;;3.00;2.80;;;;;;;;;;5058623;28;20493;-90
2022/10/01 09:04:52;;;;;;;2.72;2.53;;;;;;;;;;5076296;28;20099;-91
2022/10/01 09:07:43;;;;;;;3.03;2.80;;;;;;;;;;5076151;28;20420;-89
2022/10/01 09:10:23;;;;;;;3.92;2.67;;;;;;;;;;5076571;28;20045;-90
2022/10/01 09:12:57;;;;;;;2.50;2.30;;;;;;;;;;5058520;28;20049;-89
2022/10/01 09:15:27;;;;;;;2.08;1.98;;;;;;;;;;5058723;28;20416;-89
2022/10/01 09:17:54;;;;;;;2.40;2.30;;;;;;;;;;5076399;28;20048;-93
2022/10/01 09:20:31;;;;;;;1.50;1.50;;;;;;;;;;5058681;28;20055;-87
2022/10/01 09:23:01;;;;;;;1.70;1.60;;;;;;;;;;5058455;28;20052;-90
2022/10/01 09:25:31;;;;;;;1.95;1.67;;;;;;;;;;5058622;28;20497;-90
2022/10/01 09:28:01;;;;;;;1.90;1.80;;;;;;;;;;5058803;28;20049;-90
2022/10/01 09:30:29;;;;;;;1.38;1.27;;;;;;;;;;5058488;28;20131;-91
2022/10/01 09:33:22;;;;;;;1.45;1.30;;;;;;;;;;5058906;28;20059;-86
2022/10/01 09:35:59;;;;;;;8.15;2.90;;;;;;;;;;5059262;28;20041;-88
2022/10/01 09:38:47;;;;;;;1.40;1.30;;;;;;;;;;5064251;28;20079;-90
2022/10/01 09:41:15;;;;;;;1.42;1.33;;;;;;;;;;5058753;28;20554;-88
2022/10/01 09:43:43;;;;;;;1.20;1.20;;;;;;;;;;5064113;28;20059;-89
2022/10/01 09:46:14;;;;;;;1.17;1.05;;;;;;;;;;5061395;28;20056;-89
2022/10/01 09:48:42;;;;;;;1.10;0.98;;;;;;;;;;5060511;28;20049;-88
2022/10/01 09:51:18;;;;;;;1.08;1.08;;;;;;;;;;5058166;28;20054;-88
2022/10/01 09:54:00;;;;;;;1.23;1.23;;;;;;;;;;5075229;28;20048;-85
2022/10/01 09:56:30;;;;;;;0.70;0.70;;;;;;;;;;5076256;28;20055;-88
2022/10/01 09:58:59;;;;;;;0.80;0.65;;;;;;;;;;5058291;28;20052;-87
2022/10/01 10:01:35;;;;;;;0.82;0.82;;;;;;;;;;5058022;28;20059;-88
2022/10/01 10:04:03;;;;;;;0.60;0.60;;;;;;;;;;5074846;28;20131;-89
2022/10/01 10:06:31;;;;;;;0.70;0.70;;;;;;;;;;5057562;28;20064;-85
2022/10/01 10:09:00;;;;;;;0.73;0.73;;;;;;;;;;5057424;28;20055;-88
2022/10/01 10:11:28;;;;;;;0.50;0.50;;;;;;;;;;5057345;28;20049;-88
2022/10/01 10:13:58;;;;;;;0.57;0.57;;;;;;;;;;5074879;28;20048;-89
2022/10/01 10:16:28;;;;;;;0.63;0.63;;;;;;;;;;5056618;28;20052;-87
2022/10/01 10:19:01;;;;;;;1.20;0.60;;;;;;;;;;5074303;28;20409;-88
2022/10/01 10:21:36;;;;;;;1.00;0.80;;;;;;;;;;5057261;28;20056;-89
2022/10/01 10:24:05;;;;;;;0.63;0.63;;;;;;;;;;5057043;28;20044;-87
2022/10/01 10:26:37;;;;;;;0.40;0.40;;;;;;;;;;5057040;28;20136;-88
2022/10/01 10:29:07;;;;;;;0.47;0.47;;;;;;;;;;5057412;28;20048;-91
2022/10/01 10:31:40;;;;;;;0.35;0.35;;;;;;;;;;5058729;28;20053;-88
2022/10/01 10:34:12;;;;;;;0.50;0.50;;;;;;;;;;5074936;28;20488;-89
2022/10/01 10:36:40;;;;;;;0.60;0.60;;;;;;;;;;5057506;28;20048;-92
2022/10/01 10:39:17;;;;;;;0.28;0.28;;;;;;;;;;5056928;28;20076;-85
2022/10/01 10:41:46;;;;;;;0.43;0.40;;;;;;;;;;5056797;28;20052;-88
2022/10/01 10:44:18;;;;;;;0.70;0.50;;;;;;;;;;5056869;28;20484;-87
2022/10/01 10:46:45;;;;;;;0.50;0.50;;;;;;;;;;5056989;28;20048;-92
2022/10/01 10:49:20;;;;;;;0.90;0.90;;;;;;;;;;5056839;28;20575;-85
2022/10/01 10:51:50;;;;;;;0.52;0.52;;;;;;;;;;5056881;28;20052;-93
2022/10/01 10:54:28;;;;;;;0.60;0.60;;;;;;;;;;5056469;28;20040;-86
2022/10/01 10:56:59;;;;;;;0.40;0.40;;;;;;;;;;5056398;28;20052;-85
2022/10/01 10:59:26;;;;;;;1.75;0.60;;;;;;;;;;5056074;28;20048;-87
2022/10/01 11:01:53;;;;;;;0.40;0.40;;;;;;;;;;5056510;28;20052;-88
2022/10/01 11:04:25;;;;;;;0.77;0.63;;;;;;;;;;5056061;28;20049;-87
2022/10/01 11:07:02;;;;;;;0.30;0.30;;;;;;;;;;5056310;28;20048;-88
2022/10/01 11:09:42;;;;;;;0.45;0.45;;;;;;;;;;5056166;28;20489;-86
2022/10/01 11:12:19;;;;;;;3.85;0.50;;;;;;;;;;5056546;28;20048;-90
2022/10/01 11:14:54;;;;;;;0.38;0.35;;;;;;;;;;5056019;28;20056;-87
2022/10/01 11:17:40;;;;;;;1.30;0.35;;;;;;;;;;5056633;28;20071;-87
2022/10/01 11:20:32;;;;;;;0.20;0.20;;;;;;;;;;5056336;28;20106;-87
2022/10/01 11:23:07;;;;;;;0.20;0.20;;;;;;;;;;5055853;28;20408;-87
2022/10/01 11:25:37;;;;;;;0.52;0.25;;;;;;;;;;5055817;28;20443;-86
2022/10/01 11:28:13;;;;;;;0.30;0.30;;;;;;;;;;5055510;28;20056;-87
2022/10/01 11:30:59;;;;;;;1.08;0.30;;;;;;;;;;5056094;28;20454;-88
2022/10/01 11:33:43;;;;;;;0.70;0.30;;;;;;;;;;5056034;28;20052;-88
2022/10/01 11:36:18;;;;;;;0.45;0.40;;;;;;;;;;5055707;28;20056;-87
2022/10/01 11:38:49;;;;;;;0.30;0.30;;;;;;;;;;5055496;28;20044;-89
2022/10/01 11:41:20;;;;;;;0.30;0.30;;;;;;;;;;5055848;28;20049;-88
2022/10/01 11:43:58;;;;;;;0.20;0.20;;;;;;;;;;5055390;28;20064;-87
2022/10/01 11:46:45;;;;;;;1.08;0.32;;;;;;;;;;5039060;28;20059;-86
2022/10/01 11:49:22;;;;;;;1.10;0.35;;;;;;;;;;5055667;28;20047;-87
2022/10/01 11:51:52;;;;;;;0.22;0.22;;;;;;;;;;5055782;28;20052;-87
2022/10/01 11:54:23;;;;;;;0.15;0.10;;;;;;;;;;5055528;28;20049;-87
2022/10/01 11:59:41;;;;;;;0.15;0.15;;;;;;;;;;5072988;28;20052;-86
2022/10/01 12:02:40;;;;;;;0.10;0.10;;;;;;;;;;5073063;28;20041;-87
2022/10/01 12:05:17;;;;;;;1.35;0.13;;;;;;;;;;5012239;28;20068;-85
2022/10/01 12:07:48;;;;;;;0.20;0.20;;;;;;;;;;5055432;28;20045;-87
2022/10/01 12:10:16;;;;;;;0.20;0.20;;;;;;;;;;5055843;28;20055;-87
2022/10/01 12:13:03;;;;;;;0.13;0.13;;;;;;;;;;5073107;28;20049;-86
2022/10/01 12:15:32;;;;;;;0.70;0.30;;;;;;;;;;5074722;28;20797;-86
2022/10/01 12:18:04;;;;;;;0.20;0.20;;;;;;;;;;5072771;28;20048;-86
2022/10/01 12:20:37;;;;;;;1.10;0.40;;;;;;;;;;5055248;28;20136;-87
2022/10/01 12:23:05;;;;;;;0.20;0.20;;;;;;;;;;5055512;28;20076;-87
2022/10/01 12:26:03;;;;;;;0.10;0.10;;;;;;;;;;5055404;28;20045;-86
2022/10/01 12:28:39;;;;;;;0.30;0.20;;;;;;;;;;4985689;28;20522;-87
2022/10/01 12:31:11;;;;;;;0.38;0.38;;;;;;;;;;5055581;28;20254;-87
2022/10/01 12:34:02;;;;;;;0.20;0.20;;;;;;;;;;5055529;28;20083;-86
2022/10/01 12:36:34;;;;;;;0.75;0.15;;;;;;;;;;5055146;28;20492;-87
2022/10/01 12:39:11;;;;;;;0.20;0.20;;;;;;;;;;5057571;28;20135;-85
2022/10/01 12:41:48;;;;;;;0.60;0.20;;;;;;;;;;5058792;28;20047;-84
2022/10/01 12:44:20;;;;;;;0.20;0.20;;;;;;;;;;5058349;28;20052;-86
2022/10/01 12:46:52;;;;;;;0.47;0.10;;;;;;;;;;5057690;28;20048;-87
2022/10/01 12:49:24;;;;;;;0.10;0.10;;;;;;;;;;5057484;28;20052;-88
2022/10/01 12:51:58;;;;;;;0.30;0.30;;;;;;;;;;5057425;28;20044;-86
2022/10/01 12:54:34;;;;;;;0.20;0.20;;;;;;;;;;5057301;28;20408;-90
2022/10/01 12:57:10;;;;;;;0.30;0.20;;;;;;;;;;5057325;28;20056;-86
2022/10/01 12:59:40;;;;;;;0.25;0.25;;;;;;;;;;5057236;28;20053;-87
2022/10/01 13:02:19;;;;;;;0.25;0.20;;;;;;;;;;5057294;28;20052;-86
2022/10/01 13:04:55;;;;;;;0.10;0.10;;;;;;;;;;5057358;28;20044;-86
2022/10/01 13:07:28;;;;;;;0.10;0.10;;;;;;;;;;5057177;28;20053;-88
2022/10/01 13:10:08;;;;;;;0.30;0.20;;;;;;;;;;5060297;28;20516;-86
2022/10/01 13:12:44;;;;;;;0.80;0.10;;;;;;;;;;5057881;28;20386;-84
2022/10/01 13:15:15;;;;;;;3.85;0.10;;;;;;;;;;5056855;28;20063;-86
2022/10/01 13:17:49;;;;;;;0.82;0.25;;;;;;;;;;5056605;28;20048;-85
2022/10/01 13:20:28;;;;;;;0.20;0.20;;;;;;;;;;5056952;28;20053;-85
2022/10/01 13:23:04;;;;;;;0.70;0.30;;;;;;;;;;5075168;28;20503;-88
2022/10/01 13:25:36;;;;;;;0.68;0.10;;;;;;;;;;5057047;28;20416;-89
2022/10/01 13:28:10;;;;;;;0.40;0.30;;;;;;;;;;5056459;28;20052;-88
2022/10/01 13:30:48;;;;;;;0.40;0.40;;;;;;;;;;5057257;28;20480;-91
2022/10/01 13:33:22;;;;;;;3.30;0.70;;;;;;;;;;5056780;28;20072;-87
2022/10/01 13:35:53;;;;;;;0.20;0.20;;;;;;;;;;5056987;28;20056;-85
2022/10/01 13:38:38;;;;;;;0.50;0.20;;;;;;;;;;5074192;28;20136;-86
2022/10/01 13:41:25;;;;;;;0.10;0.10;;;;;;;;;;5056803;28;20051;-88
2022/10/01 13:43:57;;;;;;;0.70;0.32;;;;;;;;;;5056805;28;20131;-86
2022/10/01 13:46:26;;;;;;;0.50;0.30;;;;;;;;;;5019253;28;1094272;-86
2022/10/01 13:48:54;;;;;;;0.17;0.17;;;;;;;;;;5057397;28;20103;-85
2022/10/01 13:51:21;;;;;;;0.52;0.20;;;;;;;;;;5056967;28;20044;-88
2022/10/01 13:53:51;;;;;;;0.43;0.20;;;;;;;;;;5057079;28;20409;-85
2022/10/01 13:56:27;;;;;;;2.60;0.65;;;;;;;;;;5057399;28;20053;-85
2022/10/01 13:58:54;;;;;;;0.15;0.10;;;;;;;;;;5057282;28;20061;-85
2022/10/01 14:01:21;;;;;;;0.40;0.40;;;;;;;;;;5056993;28;20056;-86
2022/10/01 14:04:04;;;;;;;0.10;0.10;;;;;;;;;;5057740;28;20106;-86
2022/10/01 14:06:52;;;;;;;0.10;0.10;;;;;;;;;;5057117;28;20409;-85
2022/10/01 14:09:25;;;;;;;0.15;0.10;;;;;;;;;;5056958;28;20052;-88
2022/10/01 14:17:38;;;;;;;0.10;0.10;;;;;;;;;;5074674;28;20049;-83
2022/10/01 14:20:05;;;;;;;0.00;0.00;;;;;;;;;;5056997;28;20048;-89
2022/10/01 14:22:57;;;;;;;0.10;0.10;;;;;;;;;;5056901;28;20390;-91
2022/10/01 14:25:57;;;;;;;0.10;0.10;;;;;;;;;;5074324;28;20056;-86
2022/10/01 14:28:44;;;;;;;0.17;0.13;;;;;;;;;;5024528;28;20052;-87
2022/10/01 14:31:14;;;;;;;0.03;0.03;;;;;;;;;;5046525;28;20048;-88
2022/10/01 14:33:41;;;;;;;0.10;0.10;;;;;;;;;;5074550;28;20489;-87
2022/10/01 14:36:17;;;;;;;2.97;0.40;;;;;;;;;;5056504;28;20056;-86
2022/10/01 14:38:44;;;;;;;0.10;0.10;;;;;;;;;;5056275;28;20443;-85
2022/10/01 14:41:19;;;;;;;0.52;0.52;;;;;;;;;;5074335;28;20143;-86
2022/10/01 14:43:46;;;;;;;0.20;0.20;;;;;;;;;;5074079;28;20105;-88
2022/10/01 14:46:15;;;;;;;0.45;0.10;;;;;;;;;;5073873;28;20048;-86
2022/10/01 14:48:43;;;;;;;0.10;0.10;;;;;;;;;;5056600;28;20159;-86
2022/10/01 14:51:23;;;;;;;1.35;0.20;;;;;;;;;;5056556;28;20057;-87
2022/10/01 14:53:51;;;;;;;1.27;0.30;;;;;;;;;;5056642;28;20055;-87
2022/10/01 14:56:19;;;;;;;1.15;0.30;;;;;;;;;;5074030;28;20404;-87
2022/10/01 14:58:48;;;;;;;0.20;0.20;;;;;;;;;;5073606;28;20052;-87
2022/10/01 15:01:19;;;;;;;0.30;0.30;;;;;;;;;;5056287;28;20048;-86
2022/10/01 15:03:47;;;;;;;0.30;0.30;;;;;;;;;;5055814;28;20135;-86
2022/10/01 15:06:15;;;;;;;0.20;0.20;;;;;;;;;;5056375;28;20476;-87
2022/10/01 15:08:44;;;;;;;1.65;0.30;;;;;;;;;;5074087;28;20052;-86
2022/10/01 15:11:13;;;;;;;0.40;0.10;;;;;;;;;;5073608;28;20051;-87